Aviation Digital Data Service (ADDS)

Output produced by METARs form (1556 UTC 20 May 2018)
found at http://aviationweather.gov/adds/metars/
 
KGSO 201120Z 2012/2112 22005KT P6SM SCT008 OVC015 
     TEMPO 2012/2015 SCT015 BKN250 
     FM201500 22004KT P6SM SCT015 BKN250 
     FM201800 23005KT P6SM BKN045 
     FM210400 VRB04KT P6SM SCT010